createdAt,value
2022-10-18T00:00:50.357Z,16.02
2022-10-18T00:03:53.022Z,19.10
2022-10-18T00:06:55.726Z,18.88
2022-10-18T00:09:58.477Z,18.02
2022-10-18T00:13:00.960Z,16.40
2022-10-18T00:16:06.353Z,17.45
2022-10-18T00:19:08.896Z,19.30
2022-10-18T00:22:11.862Z,17.85
2022-10-18T00:25:14.498Z,18.02
2022-10-18T00:28:17.003Z,18.13
2022-10-18T00:31:26.582Z,16.58
2022-10-18T00:34:29.346Z,16.38
2022-10-18T00:37:32.902Z,17.40
2022-10-18T00:40:35.934Z,18.48
2022-10-18T00:43:59.282Z,17.20
2022-10-18T00:47:07.456Z,18.15
2022-10-18T00:50:10.746Z,17.27
2022-10-18T00:53:17.977Z,16.70
2022-10-18T00:56:20.872Z,17.67
2022-10-18T00:59:26.574Z,17.13
2022-10-18T01:02:29.658Z,17.02
2022-10-18T01:05:33.201Z,17.23
2022-10-18T01:08:57.412Z,18.42
2022-10-18T01:12:36.481Z,16.77
2022-10-18T01:15:52.052Z,15.80
2022-10-18T01:19:07.090Z,15.82
2022-10-18T01:22:29.280Z,16.85
2022-10-18T01:25:41.006Z,16.77
2022-10-18T01:29:32.936Z,17.35
2022-10-18T01:32:40.923Z,16.43
2022-10-18T01:35:53.175Z,17.40
2022-10-18T01:38:58.997Z,17.52
2022-10-18T01:42:05.415Z,15.50
2022-10-18T01:45:11.274Z,16.52
2022-10-18T01:48:14.804Z,15.57
2022-10-18T01:51:24.662Z,15.27
2022-10-18T01:54:34.545Z,16.30
2022-10-18T01:57:47.117Z,14.95
2022-10-18T02:00:59.552Z,16.30
2022-10-18T02:04:19.446Z,16.10
2022-10-18T02:07:39.138Z,16.30
2022-10-18T02:11:04.457Z,17.25
2022-10-18T02:14:12.946Z,15.90
2022-10-18T02:17:16.968Z,15.02
2022-10-18T02:20:22.330Z,16.77
2022-10-18T02:23:26.667Z,15.23
2022-10-18T02:26:29.958Z,15.93
2022-10-18T02:29:35.655Z,14.60
2022-10-18T02:33:05.481Z,14.38
2022-10-18T02:36:14.694Z,18.00
2022-10-18T02:39:21.783Z,16.58
2022-10-18T02:42:24.362Z,16.75
2022-10-18T02:45:27.441Z,15.27
2022-10-18T02:48:30.300Z,15.73
2022-10-18T02:51:32.931Z,13.93
2022-10-18T02:54:35.451Z,15.18
2022-10-18T02:57:38.224Z,14.45
2022-10-18T03:00:40.719Z,13.73
2022-10-18T03:03:43.307Z,15.75
2022-10-18T03:06:45.772Z,16.03
2022-10-18T03:09:48.851Z,15.90
2022-10-18T03:12:51.457Z,13.43
2022-10-18T03:15:54.255Z,15.30
2022-10-18T03:18:57.231Z,15.80
2022-10-18T03:22:00.150Z,16.00
2022-10-18T03:25:02.651Z,16.42
2022-10-18T03:28:05.564Z,15.18
2022-10-18T03:31:08.170Z,14.73
2022-10-18T03:34:10.912Z,15.98
2022-10-18T03:37:13.416Z,15.57
2022-10-18T03:40:16.265Z,15.88
2022-10-18T03:43:19.715Z,15.73
2022-10-18T03:46:23.180Z,15.55
2022-10-18T03:49:26.099Z,13.68
2022-10-18T03:52:28.731Z,14.07
2022-10-18T03:55:31.285Z,13.52
2022-10-18T04:01:41.240Z,16.08
2022-10-18T04:04:43.753Z,15.32
2022-10-18T04:07:46.463Z,16.00
2022-10-18T04:10:52.670Z,15.32
2022-10-18T04:13:55.220Z,13.65
2022-10-18T04:16:57.671Z,15.10
2022-10-18T04:20:00.604Z,14.98
2022-10-18T04:23:03.071Z,15.03
2022-10-18T04:26:06.249Z,14.25
2022-10-18T04:29:08.695Z,15.43
2022-10-18T04:32:11.317Z,12.77
2022-10-18T04:35:13.870Z,14.40
2022-10-18T04:38:16.541Z,14.00
2022-10-18T04:41:19.423Z,13.30
2022-10-18T04:44:21.948Z,13.82
2022-10-18T04:47:24.612Z,12.90
2022-10-18T04:50:27.857Z,13.65
2022-10-18T04:53:32.817Z,14.97
2022-10-18T04:56:35.332Z,14.65
2022-10-18T04:59:37.912Z,13.55
2022-10-18T05:02:40.382Z,13.77
2022-10-18T05:06:03.223Z,13.35
2022-10-18T05:09:06.285Z,13.80
2022-10-18T05:12:09.830Z,13.60
2022-10-18T05:15:13.988Z,13.57
2022-10-18T05:18:19.322Z,15.52
2022-10-18T05:21:22.695Z,14.20
2022-10-18T05:24:27.639Z,14.97
2022-10-18T05:27:30.414Z,12.55
2022-10-18T05:30:33.084Z,16.48
2022-10-18T05:33:35.729Z,19.42
2022-10-18T05:36:38.857Z,18.23
2022-10-18T05:39:41.686Z,18.57
2022-10-18T05:42:44.118Z,17.02
2022-10-18T05:45:54.338Z,18.48
2022-10-18T05:48:56.913Z,17.73
2022-10-18T05:51:59.392Z,18.58
2022-10-18T05:55:01.896Z,18.40
2022-10-18T05:58:04.538Z,17.27
2022-10-18T06:01:07.812Z,15.63
2022-10-18T06:04:10.845Z,21.30
2022-10-18T06:07:13.751Z,18.73
2022-10-18T06:10:20.856Z,17.63
2022-10-18T06:13:25.539Z,16.65
2022-10-18T06:16:32.175Z,17.15
2022-10-18T06:19:35.466Z,16.38
2022-10-18T06:22:38.299Z,17.98
2022-10-18T06:25:44.406Z,17.00
2022-10-18T06:28:48.055Z,18.73
2022-10-18T06:31:50.768Z,15.82
2022-10-18T06:34:53.327Z,15.02
2022-10-18T06:37:57.822Z,16.40
2022-10-18T06:41:05.851Z,15.47
2022-10-18T06:44:14.391Z,16.42
2022-10-18T06:47:17.246Z,18.48
2022-10-18T06:50:21.438Z,16.00
2022-10-18T06:53:29.228Z,15.38
2022-10-18T06:56:32.638Z,18.73
2022-10-18T06:59:35.983Z,15.20
2022-10-18T07:02:41.361Z,17.67
2022-10-18T07:05:44.347Z,16.45
2022-10-18T07:08:48.584Z,14.48
2022-10-18T07:11:52.978Z,15.57
2022-10-18T07:14:56.951Z,14.55
2022-10-18T07:18:00.805Z,13.45
2022-10-18T07:21:05.553Z,15.05
2022-10-18T07:24:10.093Z,13.98
2022-10-18T07:27:13.029Z,15.03
2022-10-18T07:30:15.626Z,14.73
2022-10-18T07:33:19.934Z,16.33
2022-10-18T07:36:22.515Z,15.85
2022-10-18T07:39:25.298Z,14.20
2022-10-18T07:42:32.174Z,16.43
2022-10-18T07:48:45.726Z,16.80
2022-10-18T07:51:52.534Z,16.90
2022-10-18T07:54:57.864Z,13.10
2022-10-18T07:58:01.480Z,17.03
2022-10-18T08:01:05.529Z,15.43
2022-10-18T08:04:13.969Z,18.27
2022-10-18T08:07:19.750Z,13.00
2022-10-18T08:10:24.429Z,15.13
2022-10-18T08:13:26.974Z,14.53
2022-10-18T08:19:35.821Z,14.63
2022-10-18T08:22:40.829Z,15.27
2022-10-18T08:25:44.458Z,15.50
2022-10-18T08:28:54.291Z,14.10
2022-10-18T08:32:09.610Z,16.88
2022-10-18T08:35:21.871Z,16.88
2022-10-18T08:38:24.909Z,13.23
2022-10-18T08:41:37.620Z,14.63
2022-10-18T08:44:51.733Z,15.27
2022-10-18T08:47:57.859Z,14.23
2022-10-18T08:51:03.521Z,12.93
2022-10-18T08:54:49.557Z,15.25
2022-10-18T08:57:53.567Z,16.98
2022-10-18T09:01:08.732Z,19.33
2022-10-18T09:04:30.047Z,15.70
2022-10-18T09:07:45.468Z,19.15
2022-10-18T09:10:59.472Z,17.15
2022-10-18T09:14:02.724Z,18.77
2022-10-18T09:17:05.228Z,17.10
2022-10-18T09:20:19.505Z,25.20
2022-10-18T09:23:46.331Z,16.58
2022-10-18T09:26:56.166Z,16.50
2022-10-18T09:30:09.716Z,19.60
2022-10-18T09:33:35.339Z,13.60
2022-10-18T09:36:39.267Z,15.10
2022-10-18T09:39:42.656Z,15.73
2022-10-18T09:43:03.327Z,19.85
2022-10-18T09:46:07.881Z,16.55
2022-10-18T09:49:29.549Z,14.73
2022-10-18T09:58:40.303Z,15.50
2022-10-18T10:01:45.942Z,24.13
2022-10-18T10:04:50.938Z,16.08
2022-10-18T10:08:04.419Z,19.67
2022-10-18T10:11:33.434Z,17.83
2022-10-18T10:14:45.413Z,19.27
2022-10-18T10:18:01.708Z,17.20
2022-10-18T10:21:07.153Z,14.32
2022-10-18T10:24:28.862Z,12.07
2022-10-18T10:27:45.064Z,17.88
2022-10-18T10:30:49.301Z,17.50
2022-10-18T10:34:15.281Z,16.00
2022-10-18T10:37:36.802Z,13.75
2022-10-18T10:40:51.754Z,13.37
2022-10-18T10:43:56.195Z,21.30
2022-10-18T10:47:00.519Z,17.55
2022-10-18T10:50:13.202Z,15.00
2022-10-18T10:53:36.094Z,14.98
2022-10-18T10:57:03.360Z,15.40
2022-10-18T11:00:06.705Z,16.42
2022-10-18T11:03:28.958Z,14.65
2022-10-18T11:06:47.955Z,14.07
2022-10-18T11:09:54.378Z,18.02
2022-10-18T11:13:20.003Z,12.30
2022-10-18T11:16:51.537Z,14.75
2022-10-18T11:20:10.938Z,17.98
2022-10-18T11:23:18.632Z,17.10
2022-10-18T11:26:39.387Z,15.55
2022-10-18T11:30:04.070Z,13.00
2022-10-18T11:34:08.161Z,15.77
2022-10-18T11:37:43.433Z,16.88
2022-10-18T11:41:12.402Z,18.45
2022-10-18T11:44:14.957Z,14.07
2022-10-18T11:47:46.362Z,17.70
2022-10-18T11:50:57.944Z,14.18
2022-10-18T11:54:18.820Z,12.98
2022-10-18T11:57:51.030Z,14.77
2022-10-18T12:01:03.351Z,15.05
2022-10-18T12:04:19.177Z,14.07
2022-10-18T12:07:27.805Z,14.25
2022-10-18T12:10:46.123Z,20.52
2022-10-18T12:14:07.484Z,13.98
2022-10-18T12:17:46.350Z,15.82
2022-10-18T12:20:56.268Z,14.83
2022-10-18T12:24:03.080Z,14.95
2022-10-18T12:27:06.889Z,15.10
2022-10-18T12:30:20.783Z,19.05
2022-10-18T12:33:28.984Z,15.77
2022-10-18T12:36:48.485Z,13.80
2022-10-18T12:40:33.602Z,15.95
2022-10-18T12:43:37.109Z,15.85
2022-10-18T12:46:45.679Z,13.13
2022-10-18T12:50:00.805Z,14.60
2022-10-18T12:53:06.736Z,17.37
2022-10-18T12:56:27.811Z,16.70
2022-10-18T12:59:30.246Z,14.32
2022-10-18T13:02:34.297Z,14.95
2022-10-18T13:05:55.204Z,13.70
2022-10-18T13:09:20.381Z,14.23
2022-10-18T13:12:23.650Z,14.65
2022-10-18T13:15:44.470Z,12.10
2022-10-18T13:18:55.694Z,15.57
2022-10-18T13:22:19.458Z,12.38
2022-10-18T13:25:33.782Z,13.43
2022-10-18T13:29:08.031Z,16.40
2022-10-18T13:32:36.454Z,11.50
2022-10-18T13:35:56.288Z,13.10
2022-10-18T13:39:02.660Z,12.65
2022-10-18T13:42:14.172Z,13.40
2022-10-18T13:45:32.078Z,14.57
2022-10-18T13:48:37.354Z,13.80
2022-10-18T13:52:17.355Z,12.38
2022-10-18T13:55:41.555Z,12.52
2022-10-18T13:59:15.914Z,15.27
2022-10-18T14:02:52.002Z,14.43
2022-10-18T14:06:22.706Z,13.15
2022-10-18T14:09:45.287Z,16.15
2022-10-18T14:12:54.794Z,11.40
2022-10-18T14:16:05.590Z,15.23
2022-10-18T14:19:18.244Z,14.02
2022-10-18T14:22:38.603Z,16.67
2022-10-18T14:25:41.594Z,47.22
2022-10-18T14:28:59.528Z,23.50
2022-10-18T14:32:02.686Z,21.33
2022-10-18T14:35:33.964Z,26.05
2022-10-18T14:38:39.168Z,25.92
2022-10-18T14:41:54.293Z,27.38
2022-10-18T14:44:56.858Z,24.23
2022-10-18T14:48:17.539Z,35.87
2022-10-18T14:51:21.352Z,19.63
2022-10-18T14:54:31.652Z,22.30
2022-10-18T14:57:37.457Z,19.45
2022-10-18T15:00:41.882Z,25.95
2022-10-18T15:03:47.523Z,19.87
2022-10-18T15:06:50.301Z,18.83
2022-10-18T15:09:53.805Z,22.05
2022-10-18T15:13:09.689Z,19.63
2022-10-18T15:16:19.740Z,19.77
2022-10-18T15:19:22.225Z,18.70
2022-10-18T15:22:32.129Z,18.65
2022-10-18T15:25:36.026Z,23.73
2022-10-18T15:28:49.431Z,19.85
2022-10-18T15:31:52.665Z,21.92
2022-10-18T15:35:05.884Z,20.10
2022-10-18T15:38:16.338Z,20.02
2022-10-18T15:41:44.234Z,24.13
2022-10-18T15:44:49.323Z,14.80
2022-10-18T15:47:57.900Z,16.40
2022-10-18T15:51:10.927Z,17.87
2022-10-18T15:54:29.370Z,18.25
2022-10-18T15:57:32.322Z,18.08
2022-10-18T16:00:46.794Z,16.15
2022-10-18T16:04:18.856Z,13.88
2022-10-18T16:07:22.360Z,15.80
2022-10-18T16:10:26.348Z,17.05
2022-10-18T16:13:30.291Z,16.55
2022-10-18T16:16:33.686Z,17.08
2022-10-18T16:19:36.245Z,18.52
2022-10-18T16:22:39.567Z,16.93
2022-10-18T16:25:42.309Z,17.10
2022-10-18T16:28:48.670Z,14.45
2022-10-18T16:32:06.478Z,16.25
2022-10-18T16:35:55.293Z,18.65
2022-10-18T16:39:05.697Z,14.87
2022-10-18T16:42:16.276Z,18.67
2022-10-18T16:45:19.397Z,18.17
2022-10-18T16:48:24.787Z,21.70
2022-10-18T16:51:27.785Z,16.83
2022-10-18T16:54:30.330Z,14.80
2022-10-18T16:57:32.791Z,16.17
2022-10-18T17:00:35.523Z,19.40
2022-10-18T17:03:38.042Z,17.02
2022-10-18T17:06:40.633Z,19.73
2022-10-18T17:09:43.641Z,19.10
2022-10-18T17:12:46.465Z,17.58
2022-10-18T17:15:50.373Z,15.60
2022-10-18T17:18:52.956Z,17.75
2022-10-18T17:22:02.410Z,16.02
2022-10-18T17:25:06.451Z,15.17
2022-10-18T17:28:12.986Z,14.98
2022-10-18T17:31:16.832Z,18.70
2022-10-18T17:34:21.338Z,16.35
2022-10-18T17:37:24.618Z,19.80
2022-10-18T17:40:27.873Z,18.30
2022-10-18T17:43:32.731Z,15.35
2022-10-18T17:46:38.879Z,15.75
2022-10-18T17:49:44.782Z,15.30
2022-10-18T17:52:48.767Z,16.42
2022-10-18T17:56:02.608Z,18.77
2022-10-18T17:59:06.445Z,16.85
2022-10-18T18:02:11.113Z,17.52
2022-10-18T18:05:14.339Z,18.95
2022-10-18T18:08:17.484Z,18.80
2022-10-18T18:11:22.655Z,20.03
2022-10-18T18:14:26.227Z,18.05
2022-10-18T18:17:34.558Z,17.75
2022-10-18T18:20:54.983Z,18.50
2022-10-18T18:23:58.873Z,19.80
2022-10-18T18:27:02.217Z,19.83
2022-10-18T18:30:07.183Z,16.38
2022-10-18T18:33:13.029Z,20.95
2022-10-18T18:36:16.309Z,20.73
2022-10-18T18:39:25.830Z,18.88
2022-10-18T18:42:30.772Z,18.10
2022-10-18T18:45:34.202Z,17.38
2022-10-18T18:48:37.691Z,19.33
2022-10-18T18:51:42.736Z,17.63
2022-10-18T18:54:46.026Z,18.13
2022-10-18T18:57:49.689Z,20.23
2022-10-18T19:00:54.630Z,21.75
2022-10-18T19:03:59.505Z,20.52
2022-10-18T19:07:03.169Z,21.35
2022-10-18T19:10:07.147Z,20.52
2022-10-18T19:13:11.685Z,22.60
2022-10-18T19:16:32.265Z,22.85
2022-10-18T19:19:35.718Z,26.15
2022-10-18T19:22:39.958Z,22.63
2022-10-18T19:25:44.335Z,24.08
2022-10-18T19:28:49.686Z,27.77
2022-10-18T19:31:58.765Z,23.63
2022-10-18T19:35:02.033Z,23.45
2022-10-18T19:38:05.627Z,23.27
2022-10-18T19:41:08.777Z,23.27
2022-10-18T19:44:12.829Z,26.10
2022-10-18T19:47:15.938Z,23.27
2022-10-18T19:50:21.166Z,23.92
2022-10-18T19:53:24.507Z,25.90
2022-10-18T19:56:30.212Z,23.58
2022-10-18T19:59:34.528Z,25.27
2022-10-18T20:02:37.700Z,21.63
2022-10-18T20:05:40.975Z,25.27
2022-10-18T20:08:44.320Z,23.65
2022-10-18T20:11:47.110Z,24.70
2022-10-18T20:14:51.000Z,26.47
2022-10-18T20:17:53.504Z,25.48
2022-10-18T20:20:56.647Z,24.67
2022-10-18T20:23:59.162Z,23.00
2022-10-18T20:27:01.883Z,25.23
2022-10-18T20:30:08.930Z,22.63
2022-10-18T20:33:18.381Z,25.17
2022-10-18T20:36:21.209Z,27.13
2022-10-18T20:39:23.828Z,27.20
2022-10-18T20:42:26.373Z,26.13
2022-10-18T20:45:28.919Z,26.70
2022-10-18T20:48:33.055Z,25.77
2022-10-18T20:51:36.015Z,26.20
2022-10-18T20:54:38.551Z,28.70
2022-10-18T20:57:41.443Z,27.85
2022-10-18T21:00:47.824Z,27.53
2022-10-18T21:03:52.678Z,25.83
2022-10-18T21:06:55.303Z,27.48
2022-10-18T21:09:57.788Z,23.70
2022-10-18T21:13:01.360Z,28.23
2022-10-18T21:16:05.628Z,26.83
2022-10-18T21:19:14.306Z,27.17
2022-10-18T21:22:17.939Z,26.83
2022-10-18T21:25:20.410Z,25.92
2022-10-18T21:28:23.998Z,28.77
2022-10-18T21:31:29.301Z,23.67
2022-10-18T21:34:32.208Z,28.60
2022-10-18T21:37:34.779Z,26.35
2022-10-18T21:40:44.490Z,28.33
2022-10-18T21:43:50.796Z,25.30
2022-10-18T21:46:55.078Z,27.23
2022-10-18T21:49:58.431Z,28.63
2022-10-18T21:53:00.939Z,23.55
2022-10-18T21:56:06.360Z,25.83
2022-10-18T21:59:12.643Z,25.42
2022-10-18T22:02:15.360Z,24.93
2022-10-18T22:05:18.346Z,28.30
2022-10-18T22:08:21.151Z,25.77
2022-10-18T22:11:33.052Z,26.70
2022-10-18T22:14:36.016Z,28.00
2022-10-18T22:17:38.786Z,26.23
2022-10-18T22:20:41.977Z,26.88
2022-10-18T22:23:47.407Z,25.75
2022-10-18T22:26:51.664Z,27.55
2022-10-18T22:29:54.191Z,28.48
2022-10-18T22:32:57.844Z,26.20
2022-10-18T22:36:00.389Z,28.85
2022-10-18T22:39:05.551Z,26.17
2022-10-18T22:42:08.062Z,28.80
2022-10-18T22:45:10.868Z,25.52
2022-10-18T22:48:13.474Z,26.10
2022-10-18T22:51:16.095Z,28.38
2022-10-18T22:54:18.944Z,26.42
2022-10-18T22:57:21.425Z,24.67
2022-10-18T23:00:26.667Z,25.48
2022-10-18T23:03:29.746Z,28.83
2022-10-18T23:06:34.979Z,26.38
2022-10-18T23:09:37.579Z,26.73
2022-10-18T23:12:40.505Z,27.50
2022-10-18T23:15:43.009Z,27.30
2022-10-18T23:18:53.371Z,25.30
2022-10-18T23:21:56.167Z,26.73
2022-10-18T23:24:59.041Z,24.13
2022-10-18T23:28:01.565Z,23.95
2022-10-18T23:31:12.378Z,24.58
2022-10-18T23:34:15.327Z,25.43
2022-10-18T23:37:17.998Z,23.65
2022-10-18T23:40:24.199Z,25.75
2022-10-18T23:43:31.388Z,24.80
2022-10-18T23:46:33.932Z,24.60
2022-10-18T23:49:36.745Z,24.33
2022-10-18T23:52:39.252Z,25.98
2022-10-18T23:55:56.103Z,24.05
2022-10-18T23:58:58.739Z,23.88
